sensor_id;sensor_type;location;lat;lon;timestamp;pressure;altitude;pressure_sealevel;temperature;humidity
39267;BME280;24967;51.154;13.812;2022-08-11T00:02:16;100280.88;;;19.07;50.63
39267;BME280;24967;51.154;13.812;2022-08-11T00:04:49;100284.13;;;19.02;51.18
39267;BME280;24967;51.154;13.812;2022-08-11T00:07:16;100277.44;;;18.98;51.25
39267;BME280;24967;51.154;13.812;2022-08-11T00:09:44;100279.94;;;18.99;50.86
39267;BME280;24967;51.154;13.812;2022-08-11T00:12:13;100281.16;;;18.97;50.83
39267;BME280;24967;51.154;13.812;2022-08-11T00:14:43;100287.78;;;18.94;50.73
39267;BME280;24967;51.154;13.812;2022-08-11T00:17:12;100283.97;;;18.89;50.82
39267;BME280;24967;51.154;13.812;2022-08-11T00:19:43;100283.50;;;18.85;50.39
39267;BME280;24967;51.154;13.812;2022-08-11T00:22:19;100283.22;;;18.80;50.47
39267;BME280;24967;51.154;13.812;2022-08-11T00:24:47;100288.50;;;18.73;50.23
39267;BME280;24967;51.154;13.812;2022-08-11T00:27:14;100295.59;;;18.66;50.40
39267;BME280;24967;51.154;13.812;2022-08-11T00:29:51;100297.84;;;18.63;50.34
39267;BME280;24967;51.154;13.812;2022-08-11T00:32:18;100297.91;;;18.54;50.64
39267;BME280;24967;51.154;13.812;2022-08-11T00:34:46;100292.81;;;18.45;51.13
39267;BME280;24967;51.154;13.812;2022-08-11T00:37:18;100302.94;;;18.43;50.78
39267;BME280;24967;51.154;13.812;2022-08-11T00:39:49;100299.13;;;18.37;50.36
39267;BME280;24967;51.154;13.812;2022-08-11T00:42:25;100306.22;;;18.30;50.30
39267;BME280;24967;51.154;13.812;2022-08-11T00:45:02;100302.59;;;18.23;50.66
39267;BME280;24967;51.154;13.812;2022-08-11T00:47:55;100294.06;;;18.19;51.28
39267;BME280;24967;51.154;13.812;2022-08-11T00:50:33;100297.28;;;18.15;51.35
39267;BME280;24967;51.154;13.812;2022-08-11T00:53:06;100298.00;;;18.08;51.36
39267;BME280;24967;51.154;13.812;2022-08-11T00:56:10;100300.44;;;18.03;51.68
39267;BME280;24967;51.154;13.812;2022-08-11T01:01:57;100296.28;;;17.93;51.66
39267;BME280;24967;51.154;13.812;2022-08-11T01:04:45;100293.97;;;17.90;52.03
39267;BME280;24967;51.154;13.812;2022-08-11T01:07:44;100293.50;;;17.86;52.21
39267;BME280;24967;51.154;13.812;2022-08-11T01:13:28;100290.69;;;17.79;52.61
39267;BME280;24967;51.154;13.812;2022-08-11T01:16:28;100296.91;;;17.72;52.94
39267;BME280;24967;51.154;13.812;2022-08-11T01:19:24;100299.13;;;17.68;53.40
39267;BME280;24967;51.154;13.812;2022-08-11T01:31:46;100290.69;;;17.48;53.80
39267;BME280;24967;51.154;13.812;2022-08-11T01:37:55;100291.38;;;17.42;54.18
39267;BME280;24967;51.154;13.812;2022-08-11T01:40:44;100286.34;;;17.39;54.04
39267;BME280;24967;51.154;13.812;2022-08-11T01:46:31;100280.84;;;17.32;53.79
39267;BME280;24967;51.154;13.812;2022-08-11T01:49:09;100277.34;;;17.32;53.81
39267;BME280;24967;51.154;13.812;2022-08-11T01:51:53;100283.91;;;17.29;53.86
39267;BME280;24967;51.154;13.812;2022-08-11T01:54:32;100284.94;;;17.28;54.20
39267;BME280;24967;51.154;13.812;2022-08-11T01:57:19;100283.06;;;17.29;54.24
39267;BME280;24967;51.154;13.812;2022-08-11T01:59:53;100278.72;;;17.28;54.28
39267;BME280;24967;51.154;13.812;2022-08-11T02:02:30;100276.38;;;17.25;54.23
39267;BME280;24967;51.154;13.812;2022-08-11T02:05:22;100274.09;;;17.13;54.64
39267;BME280;24967;51.154;13.812;2022-08-11T02:07:57;100280.44;;;17.12;54.84
39267;BME280;24967;51.154;13.812;2022-08-11T02:10:43;100284.97;;;17.12;55.24
39267;BME280;24967;51.154;13.812;2022-08-11T02:13:35;100277.47;;;17.07;55.20
39267;BME280;24967;51.154;13.812;2022-08-11T02:16:11;100277.28;;;17.09;55.12
39267;BME280;24967;51.154;13.812;2022-08-11T02:18:47;100278.28;;;17.08;54.93
39267;BME280;24967;51.154;13.812;2022-08-11T02:21:41;100281.19;;;16.98;54.73
39267;BME280;24967;51.154;13.812;2022-08-11T02:24:30;100289.41;;;16.97;54.75
39267;BME280;24967;51.154;13.812;2022-08-11T02:27:06;100284.75;;;16.90;55.00
39267;BME280;24967;51.154;13.812;2022-08-11T02:29:40;100289.13;;;16.83;55.18
39267;BME280;24967;51.154;13.812;2022-08-11T02:32:15;100290.00;;;16.76;55.31
39267;BME280;24967;51.154;13.812;2022-08-11T02:35:04;100286.97;;;16.70;55.43
39267;BME280;24967;51.154;13.812;2022-08-11T02:37:41;100287.31;;;16.67;54.98
39267;BME280;24967;51.154;13.812;2022-08-11T02:40:17;100290.34;;;16.64;54.82
39267;BME280;24967;51.154;13.812;2022-08-11T02:43:04;100290.84;;;16.60;54.68
39267;BME280;24967;51.154;13.812;2022-08-11T02:45:41;100291.19;;;16.57;54.76
39267;BME280;24967;51.154;13.812;2022-08-11T02:48:19;100292.53;;;16.53;54.79
39267;BME280;24967;51.154;13.812;2022-08-11T02:51:16;100297.25;;;16.51;55.05
39267;BME280;24967;51.154;13.812;2022-08-11T02:53:50;100292.22;;;16.47;55.63
39267;BME280;24967;51.154;13.812;2022-08-11T02:56:27;100295.09;;;16.46;55.61
39267;BME280;24967;51.154;13.812;2022-08-11T02:59:06;100291.72;;;16.44;55.84
39267;BME280;24967;51.154;13.812;2022-08-11T03:01:54;100297.59;;;16.39;55.77
39267;BME280;24967;51.154;13.812;2022-08-11T03:04:28;100297.75;;;16.38;55.83
39267;BME280;24967;51.154;13.812;2022-08-11T03:07:04;100302.78;;;16.33;56.16
39267;BME280;24967;51.154;13.812;2022-08-11T03:09:42;100304.00;;;16.22;56.63
39267;BME280;24967;51.154;13.812;2022-08-11T03:12:13;100297.28;;;16.18;57.02
39267;BME280;24967;51.154;13.812;2022-08-11T03:15:06;100298.78;;;16.12;57.10
39267;BME280;24967;51.154;13.812;2022-08-11T03:17:59;100292.09;;;16.08;57.51
39267;BME280;24967;51.154;13.812;2022-08-11T03:20:35;100297.78;;;16.05;56.87
39267;BME280;24967;51.154;13.812;2022-08-11T03:23:09;100308.84;;;16.02;56.63
39267;BME280;24967;51.154;13.812;2022-08-11T03:25:44;100297.44;;;16.00;56.53
39267;BME280;24967;51.154;13.812;2022-08-11T03:28:25;100303.31;;;15.95;56.92
39267;BME280;24967;51.154;13.812;2022-08-11T03:31:03;100299.94;;;15.93;57.32
39267;BME280;24967;51.154;13.812;2022-08-11T03:33:37;100299.94;;;15.93;58.03
39267;BME280;24967;51.154;13.812;2022-08-11T03:42:22;100294.91;;;15.82;56.53
39267;BME280;24967;51.154;13.812;2022-08-11T03:45:16;100299.13;;;15.76;55.98
39267;BME280;24967;51.154;13.812;2022-08-11T03:47:59;100287.34;;;15.69;56.30
39267;BME280;24967;51.154;13.812;2022-08-11T03:50:46;100295.41;;;15.69;56.57
39267;BME280;24967;51.154;13.812;2022-08-11T03:53:31;100297.38;;;15.59;57.68
39267;BME280;24967;51.154;13.812;2022-08-11T03:56:28;100283.97;;;15.59;58.04
39267;BME280;24967;51.154;13.812;2022-08-11T03:59:21;100286.66;;;15.59;58.04
39267;BME280;24967;51.154;13.812;2022-08-11T04:02:08;100285.50;;;15.62;58.24
39267;BME280;24967;51.154;13.812;2022-08-11T04:05:12;100291.84;;;15.61;58.86
39267;BME280;24967;51.154;13.812;2022-08-11T04:08:14;100285.81;;;15.58;59.86
39267;BME280;24967;51.154;13.812;2022-08-11T04:10:59;100287.66;;;15.66;59.69
39267;BME280;24967;51.154;13.812;2022-08-11T04:13:55;100293.03;;;15.66;59.71
39267;BME280;24967;51.154;13.812;2022-08-11T04:17:00;100286.97;;;15.64;59.83
39267;BME280;24967;51.154;13.812;2022-08-11T04:19:50;100289.22;;;15.69;59.80
39267;BME280;24967;51.154;13.812;2022-08-11T04:22:43;100283.38;;;15.73;59.73
39267;BME280;24967;51.154;13.812;2022-08-11T04:25:28;100286.53;;;15.77;60.00
39267;BME280;24967;51.154;13.812;2022-08-11T04:31:25;100287.72;;;15.83;59.80
39267;BME280;24967;51.154;13.812;2022-08-11T04:34:04;100289.41;;;15.84;60.45
39267;BME280;24967;51.154;13.812;2022-08-11T04:37:06;100294.09;;;15.90;60.28
39267;BME280;24967;51.154;13.812;2022-08-11T04:40:32;100296.25;;;15.94;60.35
39267;BME280;24967;51.154;13.812;2022-08-11T04:46:49;100290.41;;;16.07;60.58
39267;BME280;24967;51.154;13.812;2022-08-11T04:49:37;100285.38;;;16.12;60.64
39267;BME280;24967;51.154;13.812;2022-08-11T04:52:59;100287.38;;;16.18;60.62
39267;BME280;24967;51.154;13.812;2022-08-11T04:56:01;100284.88;;;16.25;61.10
39267;BME280;24967;51.154;13.812;2022-08-11T05:05:08;100288.84;;;16.45;61.66
39267;BME280;24967;51.154;13.812;2022-08-11T05:08:28;100294.22;;;16.45;62.65
39267;BME280;24967;51.154;13.812;2022-08-11T05:11:28;100294.06;;;16.55;62.22
39267;BME280;24967;51.154;13.812;2022-08-11T05:14:19;100296.84;;;16.70;61.74
39267;BME280;24967;51.154;13.812;2022-08-11T05:17:11;100301.72;;;16.75;62.10
39267;BME280;24967;51.154;13.812;2022-08-11T05:19:56;100302.56;;;16.83;61.71
39267;BME280;24967;51.154;13.812;2022-08-11T05:22:46;100302.69;;;16.98;61.39
39267;BME280;24967;51.154;13.812;2022-08-11T05:25:32;100306.13;;;17.15;60.93
39267;BME280;24967;51.154;13.812;2022-08-11T05:28:29;100308.78;;;17.54;61.76
39267;BME280;24967;51.154;13.812;2022-08-11T05:31:15;100305.41;;;18.29;61.22
39267;BME280;24967;51.154;13.812;2022-08-11T05:34:06;100308.50;;;19.30;57.81
39267;BME280;24967;51.154;13.812;2022-08-11T05:36:54;100308.59;;;20.38;55.44
39267;BME280;24967;51.154;13.812;2022-08-11T05:39:24;100307.50;;;21.30;54.21
39267;BME280;24967;51.154;13.812;2022-08-11T05:42:10;100310.69;;;22.21;51.26
39267;BME280;24967;51.154;13.812;2022-08-11T05:45:08;100314.53;;;23.12;48.63
39267;BME280;24967;51.154;13.812;2022-08-11T05:47:54;100306.22;;;23.90;46.96
39267;BME280;24967;51.154;13.812;2022-08-11T05:50:39;100314.56;;;24.52;44.86
39267;BME280;24967;51.154;13.812;2022-08-11T05:53:24;100319.78;;;25.15;43.29
39267;BME280;24967;51.154;13.812;2022-08-11T05:56:09;100313.19;;;25.71;42.38
39267;BME280;24967;51.154;13.812;2022-08-11T05:58:47;100307.78;;;26.25;41.05
39267;BME280;24967;51.154;13.812;2022-08-11T06:01:23;100312.81;;;26.63;39.86
39267;BME280;24967;51.154;13.812;2022-08-11T06:03:52;100308.97;;;27.11;39.50
39267;BME280;24967;51.154;13.812;2022-08-11T06:06:37;100306.84;;;27.54;38.34
39267;BME280;24967;51.154;13.812;2022-08-11T06:09:06;100303.53;;;27.80;36.36
39267;BME280;24967;51.154;13.812;2022-08-11T06:11:37;100307.06;;;28.26;36.24
39267;BME280;24967;51.154;13.812;2022-08-11T06:14:05;100306.56;;;28.46;36.30
39267;BME280;24967;51.154;13.812;2022-08-11T06:16:35;100303.66;;;28.36;35.54
39267;BME280;24967;51.154;13.812;2022-08-11T06:19:03;100308.78;;;28.66;36.11
39267;BME280;24967;51.154;13.812;2022-08-11T06:21:32;100312.09;;;29.07;34.85
39267;BME280;24967;51.154;13.812;2022-08-11T06:24:03;100310.88;;;29.42;33.73
39267;BME280;24967;51.154;13.812;2022-08-11T06:26:31;100313.13;;;29.23;34.21
39267;BME280;24967;51.154;13.812;2022-08-11T06:28:58;100313.13;;;29.45;33.74
39267;BME280;24967;51.154;13.812;2022-08-11T06:31:26;100320.19;;;29.63;34.38
39267;BME280;24967;51.154;13.812;2022-08-11T06:34:03;100306.22;;;29.92;33.40
39267;BME280;24967;51.154;13.812;2022-08-11T06:36:37;100308.19;;;29.96;33.14
39267;BME280;24967;51.154;13.812;2022-08-11T06:39:15;100315.31;;;29.97;32.23
39267;BME280;24967;51.154;13.812;2022-08-11T06:41:48;100314.56;;;30.07;32.73
39267;BME280;24967;51.154;13.812;2022-08-11T06:44:22;100310.34;;;29.94;32.70
39267;BME280;24967;51.154;13.812;2022-08-11T06:46:52;100310.75;;;30.35;32.38
39267;BME280;24967;51.154;13.812;2022-08-11T06:49:32;100306.19;;;30.51;32.34
39267;BME280;24967;51.154;13.812;2022-08-11T06:52:18;100310.84;;;30.50;32.13
39267;BME280;24967;51.154;13.812;2022-08-11T06:54:49;100318.84;;;30.57;32.11
39267;BME280;24967;51.154;13.812;2022-08-11T06:57:21;100316.97;;;30.63;31.66
39267;BME280;24967;51.154;13.812;2022-08-11T07:00:07;100316.75;;;30.32;31.34
39267;BME280;24967;51.154;13.812;2022-08-11T07:02:53;100314.19;;;30.20;32.18
39267;BME280;24967;51.154;13.812;2022-08-11T07:05:30;100313.47;;;30.03;32.34
39267;BME280;24967;51.154;13.812;2022-08-11T07:08:31;100309.59;;;29.99;32.62
39267;BME280;24967;51.154;13.812;2022-08-11T07:12:10;100318.84;;;29.93;32.85
39267;BME280;24967;51.154;13.812;2022-08-11T07:15:02;100310.00;;;29.85;33.34
39267;BME280;24967;51.154;13.812;2022-08-11T07:17:50;100307.63;;;29.67;32.09
39267;BME280;24967;51.154;13.812;2022-08-11T07:20:40;100303.28;;;29.71;32.35
39267;BME280;24967;51.154;13.812;2022-08-11T07:23:28;100302.78;;;29.52;32.58
39267;BME280;24967;51.154;13.812;2022-08-11T07:26:15;100307.34;;;29.41;32.87
39267;BME280;24967;51.154;13.812;2022-08-11T07:29:01;100311.91;;;29.36;32.99
39267;BME280;24967;51.154;13.812;2022-08-11T07:31:32;100305.94;;;29.39;32.93
39267;BME280;24967;51.154;13.812;2022-08-11T07:34:08;100303.00;;;29.45;31.89
39267;BME280;24967;51.154;13.812;2022-08-11T07:36:46;100295.94;;;29.28;33.14
39267;BME280;24967;51.154;13.812;2022-08-11T07:39:17;100301.84;;;29.41;32.33
39267;BME280;24967;51.154;13.812;2022-08-11T07:41:46;100298.09;;;29.26;31.72
39267;BME280;24967;51.154;13.812;2022-08-11T07:44:14;100291.72;;;29.42;32.55
39267;BME280;24967;51.154;13.812;2022-08-11T07:46:43;100296.88;;;29.38;31.23
39267;BME280;24967;51.154;13.812;2022-08-11T07:49:33;100294.66;;;29.35;31.59
39267;BME280;24967;51.154;13.812;2022-08-11T07:52:20;100297.06;;;29.32;31.92
39267;BME280;24967;51.154;13.812;2022-08-11T07:54:59;100290.75;;;29.31;32.65
39267;BME280;24967;51.154;13.812;2022-08-11T07:57:27;100290.94;;;29.47;33.23
39267;BME280;24967;51.154;13.812;2022-08-11T08:00:12;100291.56;;;29.76;31.17
39267;BME280;24967;51.154;13.812;2022-08-11T08:02:58;100292.28;;;29.66;31.62
39267;BME280;24967;51.154;13.812;2022-08-11T08:05:44;100286.84;;;29.71;31.00
39267;BME280;24967;51.154;13.812;2022-08-11T08:08:30;100293.63;;;29.63;30.89
39267;BME280;24967;51.154;13.812;2022-08-11T08:11:14;100286.81;;;29.66;30.98
39267;BME280;24967;51.154;13.812;2022-08-11T08:13:59;100286.97;;;29.32;30.82
39267;BME280;24967;51.154;13.812;2022-08-11T08:16:44;100280.81;;;29.20;31.23
39267;BME280;24967;51.154;13.812;2022-08-11T08:19:30;100277.34;;;29.30;31.03
39267;BME280;24967;51.154;13.812;2022-08-11T08:21:58;100279.44;;;29.44;30.62
39267;BME280;24967;51.154;13.812;2022-08-11T08:24:29;100282.00;;;29.29;30.51
39267;BME280;24967;51.154;13.812;2022-08-11T08:26:57;100276.06;;;29.15;31.15
39267;BME280;24967;51.154;13.812;2022-08-11T08:29:25;100280.03;;;29.25;31.43
39267;BME280;24967;51.154;13.812;2022-08-11T08:32:10;100273.03;;;29.12;31.01
39267;BME280;24967;51.154;13.812;2022-08-11T08:34:38;100271.81;;;29.25;31.14
39267;BME280;24967;51.154;13.812;2022-08-11T08:37:06;100266.84;;;29.21;30.68
39267;BME280;24967;51.154;13.812;2022-08-11T08:39:37;100275.03;;;28.99;31.09
39267;BME280;24967;51.154;13.812;2022-08-11T08:42:09;100268.34;;;28.90;31.54
39267;BME280;24967;51.154;13.812;2022-08-11T08:44:40;100270.59;;;28.93;31.37
39267;BME280;24967;51.154;13.812;2022-08-11T08:47:11;100265.09;;;28.93;31.50
39267;BME280;24967;51.154;13.812;2022-08-11T08:49:43;100258.13;;;28.81;31.54
39267;BME280;24967;51.154;13.812;2022-08-11T08:52:13;100265.16;;;28.98;31.45
39267;BME280;24967;51.154;13.812;2022-08-11T08:54:43;100258.31;;;29.18;31.49
39267;BME280;24967;51.154;13.812;2022-08-11T08:57:10;100254.72;;;29.39;30.42
39267;BME280;24967;51.154;13.812;2022-08-11T08:59:40;100258.03;;;29.41;30.74
39267;BME280;24967;51.154;13.812;2022-08-11T09:02:08;100252.06;;;29.50;30.69
39267;BME280;24967;51.154;13.812;2022-08-11T09:04:39;100269.47;;;29.11;30.87
39267;BME280;24967;51.154;13.812;2022-08-11T09:07:08;100261.22;;;28.89;30.99
39267;BME280;24967;51.154;13.812;2022-08-11T09:09:39;100268.56;;;28.84;31.04
39267;BME280;24967;51.154;13.812;2022-08-11T09:12:08;100261.66;;;28.81;31.35
39267;BME280;24967;51.154;13.812;2022-08-11T09:14:37;100266.25;;;28.97;31.56
39267;BME280;24967;51.154;13.812;2022-08-11T09:17:23;100267.13;;;29.20;30.89
39267;BME280;24967;51.154;13.812;2022-08-11T09:19:53;100261.69;;;29.03;30.31
39267;BME280;24967;51.154;13.812;2022-08-11T09:22:25;100265.22;;;28.82;31.36
39267;BME280;24967;51.154;13.812;2022-08-11T09:25:42;100261.03;;;28.96;31.25
39267;BME280;24967;51.154;13.812;2022-08-11T09:28:55;100250.13;;;29.01;31.31
39267;BME280;24967;51.154;13.812;2022-08-11T09:31:23;100250.72;;;29.25;30.78
39267;BME280;24967;51.154;13.812;2022-08-11T09:33:53;100241.75;;;29.57;30.77
39267;BME280;24967;51.154;13.812;2022-08-11T09:36:20;100256.28;;;29.57;30.43
39267;BME280;24967;51.154;13.812;2022-08-11T09:39:05;100238.75;;;29.58;31.46
39267;BME280;24967;51.154;13.812;2022-08-11T09:41:50;100243.63;;;29.78;30.83
39267;BME280;24967;51.154;13.812;2022-08-11T09:44:19;100240.00;;;29.73;31.19
39267;BME280;24967;51.154;13.812;2022-08-11T09:47:05;100246.22;;;29.63;30.98
39267;BME280;24967;51.154;13.812;2022-08-11T09:49:37;100243.22;;;29.97;30.49
39267;BME280;24967;51.154;13.812;2022-08-11T09:52:04;100231.06;;;30.20;29.67
39267;BME280;24967;51.154;13.812;2022-08-11T09:54:39;100238.44;;;30.14;30.04
39267;BME280;24967;51.154;13.812;2022-08-11T09:57:08;100243.81;;;29.99;30.09
39267;BME280;24967;51.154;13.812;2022-08-11T09:59:54;100238.53;;;29.92;30.19
39267;BME280;24967;51.154;13.812;2022-08-11T10:02:26;100238.31;;;29.99;30.43
39267;BME280;24967;51.154;13.812;2022-08-11T10:04:55;100232.78;;;29.94;30.55
39267;BME280;24967;51.154;13.812;2022-08-11T10:07:44;100232.03;;;29.71;30.65
39267;BME280;24967;51.154;13.812;2022-08-11T10:10:15;100233.94;;;29.43;30.38
39267;BME280;24967;51.154;13.812;2022-08-11T10:12:48;100228.44;;;29.38;30.90
39267;BME280;24967;51.154;13.812;2022-08-11T10:15:18;100234.78;;;29.17;31.32
39267;BME280;24967;51.154;13.812;2022-08-11T10:18:03;100234.72;;;29.12;30.83
39267;BME280;24967;51.154;13.812;2022-08-11T10:20:50;100232.34;;;29.20;30.01
39267;BME280;24967;51.154;13.812;2022-08-11T10:23:18;100225.41;;;29.40;29.48
39267;BME280;24967;51.154;13.812;2022-08-11T10:26:03;100220.22;;;29.65;28.84
39267;BME280;24967;51.154;13.812;2022-08-11T10:28:49;100213.72;;;29.77;28.20
39267;BME280;24967;51.154;13.812;2022-08-11T10:31:18;100213.97;;;30.07;27.76
39267;BME280;24967;51.154;13.812;2022-08-11T10:34:03;100216.66;;;30.34;28.71
39267;BME280;24967;51.154;13.812;2022-08-11T10:36:31;100211.50;;;30.38;28.80
39267;BME280;24967;51.154;13.812;2022-08-11T10:39:00;100209.06;;;30.52;28.33
39267;BME280;24967;51.154;13.812;2022-08-11T10:41:27;100205.00;;;30.60;27.62
39267;BME280;24967;51.154;13.812;2022-08-11T10:44:14;100192.09;;;30.55;27.69
39267;BME280;24967;51.154;13.812;2022-08-11T10:46:42;100194.19;;;30.90;26.94
39267;BME280;24967;51.154;13.812;2022-08-11T10:49:26;100198.22;;;30.77;26.83
39267;BME280;24967;51.154;13.812;2022-08-11T10:51:55;100190.84;;;30.78;26.57
39267;BME280;24967;51.154;13.812;2022-08-11T10:54:40;100199.31;;;30.76;26.97
39267;BME280;24967;51.154;13.812;2022-08-11T10:57:25;100190.03;;;30.83;26.57
39267;BME280;24967;51.154;13.812;2022-08-11T11:00:10;100182.84;;;30.76;26.44
39267;BME280;24967;51.154;13.812;2022-08-11T11:02:41;100184.53;;;30.83;26.56
39267;BME280;24967;51.154;13.812;2022-08-11T11:05:14;100173.06;;;30.96;26.82
39267;BME280;24967;51.154;13.812;2022-08-11T11:07:56;100179.69;;;31.05;26.30
39267;BME280;24967;51.154;13.812;2022-08-11T11:10:29;100180.81;;;31.14;26.13
39267;BME280;24967;51.154;13.812;2022-08-11T11:12:58;100175.03;;;31.21;25.99
39267;BME280;24967;51.154;13.812;2022-08-11T11:15:45;100169.75;;;30.94;25.86
39267;BME280;24967;51.154;13.812;2022-08-11T11:18:33;100174.38;;;30.78;25.22
39267;BME280;24967;51.154;13.812;2022-08-11T11:21:05;100173.91;;;30.44;25.46
39267;BME280;24967;51.154;13.812;2022-08-11T11:23:34;100160.88;;;30.66;25.65
39267;BME280;24967;51.154;13.812;2022-08-11T11:26:21;100159.06;;;30.97;25.03
39267;BME280;24967;51.154;13.812;2022-08-11T11:29:06;100159.31;;;30.91;25.40
39267;BME280;24967;51.154;13.812;2022-08-11T11:31:49;100167.97;;;31.35;24.70
39267;BME280;24967;51.154;13.812;2022-08-11T11:34:34;100155.00;;;31.31;23.92
39267;BME280;24967;51.154;13.812;2022-08-11T11:37:03;100153.41;;;31.45;23.82
39267;BME280;24967;51.154;13.812;2022-08-11T11:39:31;100158.34;;;31.38;23.64
39267;BME280;24967;51.154;13.812;2022-08-11T11:42:01;100149.19;;;31.01;22.83
39267;BME280;24967;51.154;13.812;2022-08-11T11:44:29;100152.19;;;30.95;23.55
39267;BME280;24967;51.154;13.812;2022-08-11T11:46:59;100144.22;;;30.98;23.42
39267;BME280;24967;51.154;13.812;2022-08-11T11:49:29;100140.72;;;31.08;23.50
39267;BME280;24967;51.154;13.812;2022-08-11T11:51:58;100134.69;;;31.26;23.70
39267;BME280;24967;51.154;13.812;2022-08-11T11:54:27;100132.47;;;31.18;23.21
39267;BME280;24967;51.154;13.812;2022-08-11T11:56:57;100134.13;;;31.14;23.14
39267;BME280;24967;51.154;13.812;2022-08-11T11:59:47;100134.13;;;31.24;23.29
39267;BME280;24967;51.154;13.812;2022-08-11T12:02:34;100134.38;;;31.13;22.88
39267;BME280;24967;51.154;13.812;2022-08-11T12:05:03;100137.41;;;31.11;23.10
39267;BME280;24967;51.154;13.812;2022-08-11T12:07:34;100140.13;;;31.01;22.68
39267;BME280;24967;51.154;13.812;2022-08-11T12:10:18;100134.53;;;30.70;23.60
39267;BME280;24967;51.154;13.812;2022-08-11T12:12:46;100127.44;;;30.74;23.27
39267;BME280;24967;51.154;13.812;2022-08-11T12:15:31;100117.34;;;31.00;23.26
39267;BME280;24967;51.154;13.812;2022-08-11T12:17:58;100121.47;;;31.03;23.15
39267;BME280;24967;51.154;13.812;2022-08-11T12:20:27;100111.38;;;31.55;23.07
39267;BME280;24967;51.154;13.812;2022-08-11T12:22:55;100120.16;;;31.36;22.33
39267;BME280;24967;51.154;13.812;2022-08-11T12:25:41;100119.63;;;31.44;22.73
39267;BME280;24967;51.154;13.812;2022-08-11T12:28:27;100117.13;;;31.43;22.29
39267;BME280;24967;51.154;13.812;2022-08-11T12:30:55;100109.91;;;30.86;22.59
39267;BME280;24967;51.154;13.812;2022-08-11T12:33:22;100103.59;;;30.85;22.30
39267;BME280;24967;51.154;13.812;2022-08-11T12:35:55;100106.00;;;30.71;22.54
39267;BME280;24967;51.154;13.812;2022-08-11T12:38:22;100107.59;;;30.62;22.59
39267;BME280;24967;51.154;13.812;2022-08-11T12:40:49;100103.88;;;30.84;22.74
39267;BME280;24967;51.154;13.812;2022-08-11T12:43:34;100107.84;;;30.45;23.32
39267;BME280;24967;51.154;13.812;2022-08-11T12:46:20;100100.28;;;30.83;23.05
39267;BME280;24967;51.154;13.812;2022-08-11T12:48:51;100097.03;;;31.07;22.70
39267;BME280;24967;51.154;13.812;2022-08-11T12:51:44;100098.69;;;31.02;22.22
39267;BME280;24967;51.154;13.812;2022-08-11T12:54:26;100081.94;;;31.09;23.20
39267;BME280;24967;51.154;13.812;2022-08-11T12:56:58;100080.84;;;31.15;22.60
39267;BME280;24967;51.154;13.812;2022-08-11T12:59:43;100088.78;;;30.81;22.85
39267;BME280;24967;51.154;13.812;2022-08-11T13:02:28;100086.31;;;30.85;22.65
39267;BME280;24967;51.154;13.812;2022-08-11T13:05:14;100082.47;;;30.91;22.83
39267;BME280;24967;51.154;13.812;2022-08-11T13:07:43;100076.44;;;31.09;22.58
39267;BME280;24967;51.154;13.812;2022-08-11T13:10:12;100075.63;;;30.93;22.54
39267;BME280;24967;51.154;13.812;2022-08-11T13:12:40;100077.25;;;30.94;22.57
39267;BME280;24967;51.154;13.812;2022-08-11T13:15:13;100071.75;;;30.79;23.36
39267;BME280;24967;51.154;13.812;2022-08-11T13:17:41;100080.13;;;30.47;23.41
39267;BME280;24967;51.154;13.812;2022-08-11T13:20:09;100070.53;;;30.49;23.56
39267;BME280;24967;51.154;13.812;2022-08-11T13:22:38;100070.34;;;30.76;23.71
39267;BME280;24967;51.154;13.812;2022-08-11T13:25:12;100066.84;;;31.07;23.49
39267;BME280;24967;51.154;13.812;2022-08-11T13:27:40;100065.47;;;31.30;22.97
39267;BME280;24967;51.154;13.812;2022-08-11T13:30:08;100059.44;;;31.17;22.99
39267;BME280;24967;51.154;13.812;2022-08-11T13:32:52;100048.44;;;30.82;23.88
39267;BME280;24967;51.154;13.812;2022-08-11T13:35:21;100053.31;;;30.69;24.08
39267;BME280;24967;51.154;13.812;2022-08-11T13:37:48;100046.25;;;30.94;23.70
39267;BME280;24967;51.154;13.812;2022-08-11T13:40:19;100039.13;;;31.23;23.62
39267;BME280;24967;51.154;13.812;2022-08-11T13:42:47;100052.03;;;31.43;23.56
39267;BME280;24967;51.154;13.812;2022-08-11T13:45:15;100044.91;;;31.47;23.05
39267;BME280;24967;51.154;13.812;2022-08-11T13:47:43;100043.53;;;31.40;23.08
39267;BME280;24967;51.154;13.812;2022-08-11T13:50:11;100038.03;;;31.14;22.73
39267;BME280;24967;51.154;13.812;2022-08-11T13:52:38;100034.72;;;31.17;22.98
39267;BME280;24967;51.154;13.812;2022-08-11T13:55:07;100031.72;;;31.44;22.66
39267;BME280;24967;51.154;13.812;2022-08-11T13:57:37;100028.66;;;31.31;23.06
39267;BME280;24967;51.154;13.812;2022-08-11T14:00:07;100032.81;;;31.43;23.13
39267;BME280;24967;51.154;13.812;2022-08-11T14:02:41;100038.59;;;31.37;23.00
39267;BME280;24967;51.154;13.812;2022-08-11T14:05:11;100034.44;;;31.19;23.63
39267;BME280;24967;51.154;13.812;2022-08-11T14:07:43;100030.88;;;30.88;23.35
39267;BME280;24967;51.154;13.812;2022-08-11T14:10:13;100037.75;;;31.26;23.31
39267;BME280;24967;51.154;13.812;2022-08-11T14:12:46;100024.28;;;31.19;23.37
39267;BME280;24967;51.154;13.812;2022-08-11T14:15:41;100022.38;;;31.10;23.40
39267;BME280;24967;51.154;13.812;2022-08-11T14:18:12;100024.56;;;31.18;23.52
39267;BME280;24967;51.154;13.812;2022-08-11T14:20:43;100020.47;;;31.05;23.48
39267;BME280;24967;51.154;13.812;2022-08-11T14:23:38;100022.41;;;31.35;23.68